sensor_id;sensor_type;location;lat;lon;timestamp;P1;durP1;ratioP1;P2;durP2;ratioP2
1122;SDS011;548;48.778;9.252;2023-05-16T00:00:59;27.13;;;25.40;;
1122;SDS011;548;48.778;9.252;2023-05-16T00:03:26;26.50;;;24.97;;
1122;SDS011;548;48.778;9.252;2023-05-16T00:05:54;27.60;;;25.33;;
1122;SDS011;548;48.778;9.252;2023-05-16T00:08:22;26.20;;;24.57;;
1122;SDS011;548;48.778;9.252;2023-05-16T00:10:50;28.63;;;26.57;;
1122;SDS011;548;48.778;9.252;2023-05-16T00:13:16;28.03;;;26.13;;
1122;SDS011;548;48.778;9.252;2023-05-16T00:15:46;28.03;;;26.03;;
1122;SDS011;548;48.778;9.252;2023-05-16T00:18:13;27.90;;;26.10;;
1122;SDS011;548;48.778;9.252;2023-05-16T00:20:40;28.50;;;26.67;;
1122;SDS011;548;48.778;9.252;2023-05-16T00:23:07;27.77;;;25.80;;
1122;SDS011;548;48.778;9.252;2023-05-16T00:25:34;27.47;;;25.77;;
1122;SDS011;548;48.778;9.252;2023-05-16T00:28:02;29.57;;;27.57;;
1122;SDS011;548;48.778;9.252;2023-05-16T00:30:29;27.67;;;25.77;;
1122;SDS011;548;48.778;9.252;2023-05-16T00:32:56;27.60;;;25.50;;
1122;SDS011;548;48.778;9.252;2023-05-16T00:35:23;28.43;;;26.13;;
1122;SDS011;548;48.778;9.252;2023-05-16T00:37:49;28.53;;;26.53;;
1122;SDS011;548;48.778;9.252;2023-05-16T00:40:16;27.83;;;26.03;;
1122;SDS011;548;48.778;9.252;2023-05-16T00:42:43;27.40;;;25.53;;
1122;SDS011;548;48.778;9.252;2023-05-16T00:45:11;27.50;;;25.60;;
1122;SDS011;548;48.778;9.252;2023-05-16T00:47:38;27.20;;;25.50;;
1122;SDS011;548;48.778;9.252;2023-05-16T00:50:05;28.80;;;26.33;;
1122;SDS011;548;48.778;9.252;2023-05-16T00:52:32;27.07;;;24.80;;
1122;SDS011;548;48.778;9.252;2023-05-16T00:55:00;27.33;;;25.30;;
1122;SDS011;548;48.778;9.252;2023-05-16T00:57:27;29.37;;;27.03;;
1122;SDS011;548;48.778;9.252;2023-05-16T00:59:55;27.53;;;25.67;;
1122;SDS011;548;48.778;9.252;2023-05-16T01:02:23;26.60;;;24.90;;
1122;SDS011;548;48.778;9.252;2023-05-16T01:04:52;29.90;;;27.73;;
1122;SDS011;548;48.778;9.252;2023-05-16T01:07:20;28.07;;;26.07;;
1122;SDS011;548;48.778;9.252;2023-05-16T01:09:47;29.73;;;27.30;;
1122;SDS011;548;48.778;9.252;2023-05-16T01:12:15;28.40;;;26.33;;
1122;SDS011;548;48.778;9.252;2023-05-16T01:14:48;28.50;;;26.30;;
1122;SDS011;548;48.778;9.252;2023-05-16T01:17:35;28.00;;;26.20;;
1122;SDS011;548;48.778;9.252;2023-05-16T01:20:12;27.33;;;25.37;;
1122;SDS011;548;48.778;9.252;2023-05-16T01:22:46;31.57;;;28.87;;
1122;SDS011;548;48.778;9.252;2023-05-16T01:25:30;30.10;;;27.57;;
1122;SDS011;548;48.778;9.252;2023-05-16T01:28:05;32.80;;;30.40;;
1122;SDS011;548;48.778;9.252;2023-05-16T01:30:37;30.50;;;28.30;;
1122;SDS011;548;48.778;9.252;2023-05-16T01:33:05;31.50;;;29.20;;
1122;SDS011;548;48.778;9.252;2023-05-16T01:35:32;31.03;;;28.40;;
1122;SDS011;548;48.778;9.252;2023-05-16T01:38:03;30.30;;;27.67;;
1122;SDS011;548;48.778;9.252;2023-05-16T01:40:37;30.50;;;28.50;;
1122;SDS011;548;48.778;9.252;2023-05-16T01:43:13;29.23;;;27.30;;
1122;SDS011;548;48.778;9.252;2023-05-16T01:45:46;30.73;;;28.67;;
1122;SDS011;548;48.778;9.252;2023-05-16T01:48:20;31.80;;;29.40;;
1122;SDS011;548;48.778;9.252;2023-05-16T01:50:50;33.23;;;30.90;;
1122;SDS011;548;48.778;9.252;2023-05-16T01:53:21;34.93;;;32.43;;
1122;SDS011;548;48.778;9.252;2023-05-16T01:55:52;38.93;;;34.90;;
1122;SDS011;548;48.778;9.252;2023-05-16T01:58:24;37.93;;;34.87;;
1122;SDS011;548;48.778;9.252;2023-05-16T02:00:53;37.10;;;33.70;;
1122;SDS011;548;48.778;9.252;2023-05-16T02:03:19;41.53;;;38.03;;
1122;SDS011;548;48.778;9.252;2023-05-16T02:05:46;37.47;;;34.30;;
1122;SDS011;548;48.778;9.252;2023-05-16T02:08:13;41.23;;;37.40;;
1122;SDS011;548;48.778;9.252;2023-05-16T02:10:40;43.73;;;39.37;;
1122;SDS011;548;48.778;9.252;2023-05-16T02:13:07;42.40;;;38.60;;
1122;SDS011;548;48.778;9.252;2023-05-16T02:15:35;43.77;;;39.33;;
1122;SDS011;548;48.778;9.252;2023-05-16T02:18:01;44.60;;;40.43;;
1122;SDS011;548;48.778;9.252;2023-05-16T02:20:29;39.83;;;36.40;;
1122;SDS011;548;48.778;9.252;2023-05-16T02:22:56;39.40;;;35.70;;
1122;SDS011;548;48.778;9.252;2023-05-16T02:25:23;43.60;;;39.73;;
1122;SDS011;548;48.778;9.252;2023-05-16T02:27:50;44.10;;;40.20;;
1122;SDS011;548;48.778;9.252;2023-05-16T02:30:16;44.93;;;40.77;;
1122;SDS011;548;48.778;9.252;2023-05-16T02:32:45;45.27;;;40.67;;
1122;SDS011;548;48.778;9.252;2023-05-16T02:35:13;45.13;;;40.87;;
1122;SDS011;548;48.778;9.252;2023-05-16T02:37:40;44.40;;;40.30;;
1122;SDS011;548;48.778;9.252;2023-05-16T02:40:07;44.77;;;40.73;;
1122;SDS011;548;48.778;9.252;2023-05-16T02:42:35;45.60;;;41.17;;
1122;SDS011;548;48.778;9.252;2023-05-16T02:45:01;45.37;;;40.83;;
1122;SDS011;548;48.778;9.252;2023-05-16T02:47:28;45.37;;;40.90;;
1122;SDS011;548;48.778;9.252;2023-05-16T02:49:56;47.37;;;43.17;;
1122;SDS011;548;48.778;9.252;2023-05-16T02:52:23;48.23;;;43.40;;
1122;SDS011;548;48.778;9.252;2023-05-16T02:54:50;45.57;;;41.17;;
1122;SDS011;548;48.778;9.252;2023-05-16T02:57:16;47.00;;;42.53;;
1122;SDS011;548;48.778;9.252;2023-05-16T02:59:43;45.97;;;41.60;;
1122;SDS011;548;48.778;9.252;2023-05-16T03:02:10;46.63;;;42.03;;
1122;SDS011;548;48.778;9.252;2023-05-16T03:04:36;43.83;;;39.90;;
1122;SDS011;548;48.778;9.252;2023-05-16T03:07:04;47.60;;;42.63;;
1122;SDS011;548;48.778;9.252;2023-05-16T03:09:31;46.00;;;41.40;;
1122;SDS011;548;48.778;9.252;2023-05-16T03:11:58;47.53;;;42.67;;
1122;SDS011;548;48.778;9.252;2023-05-16T03:14:25;52.17;;;46.77;;
1122;SDS011;548;48.778;9.252;2023-05-16T03:16:52;47.33;;;41.80;;
1122;SDS011;548;48.778;9.252;2023-05-16T03:19:18;49.83;;;44.70;;
1122;SDS011;548;48.778;9.252;2023-05-16T03:21:45;48.37;;;43.47;;
1122;SDS011;548;48.778;9.252;2023-05-16T03:24:13;49.60;;;44.50;;
1122;SDS011;548;48.778;9.252;2023-05-16T03:26:40;51.03;;;45.50;;
1122;SDS011;548;48.778;9.252;2023-05-16T03:29:07;50.87;;;45.50;;
1122;SDS011;548;48.778;9.252;2023-05-16T03:31:34;47.83;;;42.90;;
1122;SDS011;548;48.778;9.252;2023-05-16T03:34:00;51.47;;;46.03;;
1122;SDS011;548;48.778;9.252;2023-05-16T03:36:27;50.97;;;45.77;;
1122;SDS011;548;48.778;9.252;2023-05-16T03:38:54;50.40;;;43.90;;
1122;SDS011;548;48.778;9.252;2023-05-16T03:41:22;49.37;;;44.20;;
1122;SDS011;548;48.778;9.252;2023-05-16T03:43:50;52.30;;;46.67;;
1122;SDS011;548;48.778;9.252;2023-05-16T03:46:16;51.67;;;45.43;;
1122;SDS011;548;48.778;9.252;2023-05-16T03:48:43;50.53;;;45.23;;
1122;SDS011;548;48.778;9.252;2023-05-16T03:51:10;51.17;;;45.70;;
1122;SDS011;548;48.778;9.252;2023-05-16T03:53:37;54.57;;;47.13;;
1122;SDS011;548;48.778;9.252;2023-05-16T03:56:03;52.23;;;46.73;;
1122;SDS011;548;48.778;9.252;2023-05-16T03:58:32;49.50;;;44.30;;
1122;SDS011;548;48.778;9.252;2023-05-16T04:00:59;53.60;;;47.37;;
1122;SDS011;548;48.778;9.252;2023-05-16T04:03:25;52.03;;;46.43;;
1122;SDS011;548;48.778;9.252;2023-05-16T04:05:54;54.00;;;44.93;;
1122;SDS011;548;48.778;9.252;2023-05-16T04:08:21;56.60;;;48.90;;
1122;SDS011;548;48.778;9.252;2023-05-16T04:10:47;52.10;;;46.63;;
1122;SDS011;548;48.778;9.252;2023-05-16T04:13:14;56.40;;;48.43;;
1122;SDS011;548;48.778;9.252;2023-05-16T04:15:42;51.60;;;45.93;;
1122;SDS011;548;48.778;9.252;2023-05-16T04:18:09;53.13;;;46.70;;
1122;SDS011;548;48.778;9.252;2023-05-16T04:20:36;52.57;;;47.07;;
1122;SDS011;548;48.778;9.252;2023-05-16T04:23:02;52.50;;;45.53;;
1122;SDS011;548;48.778;9.252;2023-05-16T04:25:29;56.47;;;48.00;;
1122;SDS011;548;48.778;9.252;2023-05-16T04:27:56;52.83;;;47.23;;
1122;SDS011;548;48.778;9.252;2023-05-16T04:30:23;51.63;;;46.07;;
1122;SDS011;548;48.778;9.252;2023-05-16T04:32:51;55.07;;;49.20;;
1122;SDS011;548;48.778;9.252;2023-05-16T04:35:18;55.30;;;49.30;;
1122;SDS011;548;48.778;9.252;2023-05-16T04:37:45;52.50;;;47.10;;
1122;SDS011;548;48.778;9.252;2023-05-16T04:40:12;53.97;;;48.17;;
1122;SDS011;548;48.778;9.252;2023-05-16T04:42:39;53.23;;;47.50;;
1122;SDS011;548;48.778;9.252;2023-05-16T04:45:06;52.80;;;46.77;;
1122;SDS011;548;48.778;9.252;2023-05-16T04:47:35;53.27;;;46.77;;
1122;SDS011;548;48.778;9.252;2023-05-16T04:50:05;54.80;;;48.57;;
1122;SDS011;548;48.778;9.252;2023-05-16T04:52:33;50.80;;;45.30;;
1122;SDS011;548;48.778;9.252;2023-05-16T04:55:00;49.80;;;44.70;;
1122;SDS011;548;48.778;9.252;2023-05-16T04:57:27;50.53;;;45.23;;
1122;SDS011;548;48.778;9.252;2023-05-16T04:59:54;50.73;;;45.10;;
1122;SDS011;548;48.778;9.252;2023-05-16T05:02:21;50.57;;;45.07;;
1122;SDS011;548;48.778;9.252;2023-05-16T05:04:48;48.73;;;43.53;;
1122;SDS011;548;48.778;9.252;2023-05-16T05:07:16;51.73;;;46.23;;
1122;SDS011;548;48.778;9.252;2023-05-16T05:09:43;48.10;;;42.60;;
1122;SDS011;548;48.778;9.252;2023-05-16T05:12:10;48.30;;;43.40;;
1122;SDS011;548;48.778;9.252;2023-05-16T05:14:37;50.07;;;44.67;;
1122;SDS011;548;48.778;9.252;2023-05-16T05:17:04;52.33;;;46.70;;
1122;SDS011;548;48.778;9.252;2023-05-16T05:19:31;52.53;;;44.57;;
1122;SDS011;548;48.778;9.252;2023-05-16T05:21:57;44.97;;;40.37;;
1122;SDS011;548;48.778;9.252;2023-05-16T05:24:25;46.67;;;41.67;;
1122;SDS011;548;48.778;9.252;2023-05-16T05:26:52;46.57;;;41.67;;
1122;SDS011;548;48.778;9.252;2023-05-16T05:29:19;49.33;;;44.10;;
1122;SDS011;548;48.778;9.252;2023-05-16T05:31:46;49.30;;;44.13;;
1122;SDS011;548;48.778;9.252;2023-05-16T05:34:13;47.33;;;42.10;;
1122;SDS011;548;48.778;9.252;2023-05-16T05:36:40;48.97;;;43.40;;
1122;SDS011;548;48.778;9.252;2023-05-16T05:39:07;46.10;;;41.50;;
1122;SDS011;548;48.778;9.252;2023-05-16T05:41:35;49.60;;;44.40;;
1122;SDS011;548;48.778;9.252;2023-05-16T05:44:02;50.57;;;42.73;;
1122;SDS011;548;48.778;9.252;2023-05-16T05:46:29;48.33;;;43.27;;
1122;SDS011;548;48.778;9.252;2023-05-16T05:48:55;64.20;;;47.93;;
1122;SDS011;548;48.778;9.252;2023-05-16T05:51:22;49.93;;;44.57;;
1122;SDS011;548;48.778;9.252;2023-05-16T05:53:49;47.47;;;42.30;;
1122;SDS011;548;48.778;9.252;2023-05-16T05:56:16;47.27;;;42.37;;
1122;SDS011;548;48.778;9.252;2023-05-16T05:58:44;47.03;;;42.17;;
1122;SDS011;548;48.778;9.252;2023-05-16T06:01:11;44.43;;;39.73;;
1122;SDS011;548;48.778;9.252;2023-05-16T06:03:38;45.60;;;41.00;;
1122;SDS011;548;48.778;9.252;2023-05-16T06:06:05;43.87;;;38.83;;
1122;SDS011;548;48.778;9.252;2023-05-16T06:08:32;46.67;;;41.87;;
1122;SDS011;548;48.778;9.252;2023-05-16T06:10:59;46.97;;;41.93;;
1122;SDS011;548;48.778;9.252;2023-05-16T06:13:26;47.73;;;42.73;;
1122;SDS011;548;48.778;9.252;2023-05-16T06:15:54;49.63;;;44.30;;
1122;SDS011;548;48.778;9.252;2023-05-16T06:18:20;46.07;;;41.50;;
1122;SDS011;548;48.778;9.252;2023-05-16T06:20:47;44.37;;;39.77;;
1122;SDS011;548;48.778;9.252;2023-05-16T06:23:14;46.60;;;41.60;;
1122;SDS011;548;48.778;9.252;2023-05-16T06:25:41;45.60;;;40.90;;
1122;SDS011;548;48.778;9.252;2023-05-16T06:28:08;46.13;;;41.43;;
1122;SDS011;548;48.778;9.252;2023-05-16T06:30:34;45.30;;;40.83;;
1122;SDS011;548;48.778;9.252;2023-05-16T06:33:02;43.67;;;39.10;;
1122;SDS011;548;48.778;9.252;2023-05-16T06:35:29;43.53;;;39.20;;
1122;SDS011;548;48.778;9.252;2023-05-16T06:37:56;43.27;;;39.00;;
1122;SDS011;548;48.778;9.252;2023-05-16T06:40:22;42.43;;;38.43;;
1122;SDS011;548;48.778;9.252;2023-05-16T06:42:49;40.83;;;36.93;;
1122;SDS011;548;48.778;9.252;2023-05-16T06:45:16;40.90;;;36.67;;
1122;SDS011;548;48.778;9.252;2023-05-16T06:47:43;40.87;;;36.80;;
1122;SDS011;548;48.778;9.252;2023-05-16T06:50:11;39.40;;;35.80;;
1122;SDS011;548;48.778;9.252;2023-05-16T06:52:38;40.17;;;36.30;;
1122;SDS011;548;48.778;9.252;2023-05-16T06:55:06;39.80;;;35.93;;
1122;SDS011;548;48.778;9.252;2023-05-16T06:57:33;37.87;;;34.17;;
1122;SDS011;548;48.778;9.252;2023-05-16T06:59:59;38.20;;;34.30;;
1122;SDS011;548;48.778;9.252;2023-05-16T07:02:26;34.67;;;31.57;;
1122;SDS011;548;48.778;9.252;2023-05-16T07:04:53;34.93;;;31.83;;
1122;SDS011;548;48.778;9.252;2023-05-16T07:07:21;35.07;;;31.40;;
1122;SDS011;548;48.778;9.252;2023-05-16T07:09:48;35.80;;;32.77;;
1122;SDS011;548;48.778;9.252;2023-05-16T07:12:14;33.27;;;30.10;;
1122;SDS011;548;48.778;9.252;2023-05-16T07:14:42;33.47;;;30.43;;
1122;SDS011;548;48.778;9.252;2023-05-16T07:17:09;33.40;;;30.33;;
1122;SDS011;548;48.778;9.252;2023-05-16T07:19:36;35.13;;;31.83;;
1122;SDS011;548;48.778;9.252;2023-05-16T07:22:02;35.27;;;32.07;;
1122;SDS011;548;48.778;9.252;2023-05-16T07:24:31;33.73;;;30.50;;
1122;SDS011;548;48.778;9.252;2023-05-16T07:26:57;35.67;;;31.90;;
1122;SDS011;548;48.778;9.252;2023-05-16T07:29:24;30.60;;;27.90;;
1122;SDS011;548;48.778;9.252;2023-05-16T07:31:51;34.23;;;30.93;;
1122;SDS011;548;48.778;9.252;2023-05-16T07:34:18;33.03;;;30.43;;
1122;SDS011;548;48.778;9.252;2023-05-16T07:36:45;31.67;;;28.70;;
1122;SDS011;548;48.778;9.252;2023-05-16T07:39:12;31.40;;;28.70;;
1122;SDS011;548;48.778;9.252;2023-05-16T07:41:40;31.30;;;28.60;;
1122;SDS011;548;48.778;9.252;2023-05-16T07:44:06;32.80;;;29.67;;
1122;SDS011;548;48.778;9.252;2023-05-16T07:46:33;34.20;;;31.00;;
1122;SDS011;548;48.778;9.252;2023-05-16T07:49:00;31.93;;;28.50;;
1122;SDS011;548;48.778;9.252;2023-05-16T07:51:26;29.40;;;27.00;;
1122;SDS011;548;48.778;9.252;2023-05-16T07:53:53;28.83;;;26.57;;
1122;SDS011;548;48.778;9.252;2023-05-16T07:56:20;27.47;;;25.37;;
1122;SDS011;548;48.778;9.252;2023-05-16T07:58:49;28.37;;;25.93;;
1122;SDS011;548;48.778;9.252;2023-05-16T08:01:15;26.77;;;24.87;;
1122;SDS011;548;48.778;9.252;2023-05-16T08:03:42;25.13;;;23.20;;
1122;SDS011;548;48.778;9.252;2023-05-16T08:06:09;27.00;;;24.70;;
1122;SDS011;548;48.778;9.252;2023-05-16T08:08:36;25.13;;;23.13;;
1122;SDS011;548;48.778;9.252;2023-05-16T08:11:02;24.57;;;22.87;;
1122;SDS011;548;48.778;9.252;2023-05-16T08:13:30;25.67;;;23.60;;
1122;SDS011;548;48.778;9.252;2023-05-16T08:15:58;24.87;;;22.97;;
1122;SDS011;548;48.778;9.252;2023-05-16T08:18:25;23.97;;;22.23;;
1122;SDS011;548;48.778;9.252;2023-05-16T08:20:52;22.33;;;20.70;;
1122;SDS011;548;48.778;9.252;2023-05-16T08:23:18;24.70;;;22.90;;
1122;SDS011;548;48.778;9.252;2023-05-16T08:25:45;21.33;;;20.03;;
1122;SDS011;548;48.778;9.252;2023-05-16T08:28:12;21.77;;;20.20;;
1122;SDS011;548;48.778;9.252;2023-05-16T08:30:39;21.40;;;19.97;;
1122;SDS011;548;48.778;9.252;2023-05-16T08:33:07;20.17;;;18.87;;
1122;SDS011;548;48.778;9.252;2023-05-16T08:35:34;20.83;;;19.43;;
1122;SDS011;548;48.778;9.252;2023-05-16T08:38:00;22.77;;;21.10;;
1122;SDS011;548;48.778;9.252;2023-05-16T08:40:28;23.40;;;21.90;;
1122;SDS011;548;48.778;9.252;2023-05-16T08:42:55;22.80;;;21.20;;
1122;SDS011;548;48.778;9.252;2023-05-16T08:45:22;21.70;;;20.10;;
1122;SDS011;548;48.778;9.252;2023-05-16T08:47:49;25.10;;;23.40;;
1122;SDS011;548;48.778;9.252;2023-05-16T08:50:20;24.77;;;22.67;;
1122;SDS011;548;48.778;9.252;2023-05-16T08:52:49;24.17;;;22.47;;
1122;SDS011;548;48.778;9.252;2023-05-16T08:55:18;24.40;;;22.50;;
1122;SDS011;548;48.778;9.252;2023-05-16T08:57:45;24.90;;;22.80;;
1122;SDS011;548;48.778;9.252;2023-05-16T09:00:15;24.23;;;22.33;;
1122;SDS011;548;48.778;9.252;2023-05-16T13:57:20;14.60;;;13.20;;
1122;SDS011;548;48.778;9.252;2023-05-16T13:59:47;13.03;;;12.43;;
1122;SDS011;548;48.778;9.252;2023-05-16T14:02:13;13.67;;;12.87;;
1122;SDS011;548;48.778;9.252;2023-05-16T14:04:40;13.43;;;12.73;;
1122;SDS011;548;48.778;9.252;2023-05-16T14:07:07;13.50;;;12.90;;
1122;SDS011;548;48.778;9.252;2023-05-16T14:09:34;13.70;;;13.10;;
1122;SDS011;548;48.778;9.252;2023-05-16T14:12:03;14.17;;;13.40;;
1122;SDS011;548;48.778;9.252;2023-05-16T14:14:32;14.00;;;13.40;;
1122;SDS011;548;48.778;9.252;2023-05-16T14:16:59;14.00;;;13.40;;
1122;SDS011;548;48.778;9.252;2023-05-16T14:19:25;14.30;;;13.50;;
1122;SDS011;548;48.778;9.252;2023-05-16T14:21:52;14.57;;;13.70;;
1122;SDS011;548;48.778;9.252;2023-05-16T14:24:19;13.33;;;12.73;;
1122;SDS011;548;48.778;9.252;2023-05-16T14:26:46;15.03;;;14.13;;
1122;SDS011;548;48.778;9.252;2023-05-16T14:29:13;13.87;;;13.27;;
1122;SDS011;548;48.778;9.252;2023-05-16T14:31:41;14.37;;;13.70;;
1122;SDS011;548;48.778;9.252;2023-05-16T14:34:07;13.57;;;12.87;;
1122;SDS011;548;48.778;9.252;2023-05-16T14:36:34;14.60;;;13.50;;
1122;SDS011;548;48.778;9.252;2023-05-16T14:39:01;14.30;;;13.60;;
1122;SDS011;548;48.778;9.252;2023-05-16T14:41:27;14.30;;;13.70;;
1122;SDS011;548;48.778;9.252;2023-05-16T14:43:54;13.87;;;13.27;;
1122;SDS011;548;48.778;9.252;2023-05-16T14:46:21;14.43;;;13.83;;
1122;SDS011;548;48.778;9.252;2023-05-16T14:48:49;14.00;;;13.30;;
1122;SDS011;548;48.778;9.252;2023-05-16T14:51:16;15.30;;;14.30;;
1122;SDS011;548;48.778;9.252;2023-05-16T14:53:43;13.70;;;13.00;;
1122;SDS011;548;48.778;9.252;2023-05-16T14:56:10;14.30;;;13.70;;
1122;SDS011;548;48.778;9.252;2023-05-16T14:58:36;13.70;;;13.00;;
1122;SDS011;548;48.778;9.252;2023-05-16T15:01:03;13.80;;;13.00;;
1122;SDS011;548;48.778;9.252;2023-05-16T15:03:30;13.73;;;13.03;;
1122;SDS011;548;48.778;9.252;2023-05-16T15:05:58;12.67;;;12.17;;
1122;SDS011;548;48.778;9.252;2023-05-16T15:08:25;13.70;;;13.00;;
1122;SDS011;548;48.778;9.252;2023-05-16T15:10:52;14.37;;;13.37;;
1122;SDS011;548;48.778;9.252;2023-05-16T15:13:18;13.47;;;12.87;;
1122;SDS011;548;48.778;9.252;2023-05-16T15:15:45;13.17;;;12.63;;
1122;SDS011;548;48.778;9.252;2023-05-16T15:18:12;13.03;;;12.40;;
1122;SDS011;548;48.778;9.252;2023-05-16T15:20:38;11.83;;;11.13;;
1122;SDS011;548;48.778;9.252;2023-05-16T15:23:06;13.03;;;12.33;;
1122;SDS011;548;48.778;9.252;2023-05-16T15:25:33;13.20;;;12.50;;
1122;SDS011;548;48.778;9.252;2023-05-16T15:28:00;12.70;;;12.07;;
1122;SDS011;548;48.778;9.252;2023-05-16T15:30:26;12.60;;;12.00;;
1122;SDS011;548;48.778;9.252;2023-05-16T15:32:53;12.23;;;11.77;;
1122;SDS011;548;48.778;9.252;2023-05-16T15:35:20;12.43;;;11.87;;
1122;SDS011;548;48.778;9.252;2023-05-16T15:37:46;12.70;;;11.90;;
1122;SDS011;548;48.778;9.252;2023-05-16T15:40:14;11.80;;;11.40;;
1122;SDS011;548;48.778;9.252;2023-05-16T15:42:42;11.77;;;11.17;;
1122;SDS011;548;48.778;9.252;2023-05-16T15:45:09;11.50;;;10.90;;
1122;SDS011;548;48.778;9.252;2023-05-16T15:47:36;12.43;;;11.70;;
1122;SDS011;548;48.778;9.252;2023-05-16T15:50:03;12.23;;;11.73;;
1122;SDS011;548;48.778;9.252;2023-05-16T15:52:30;11.50;;;10.80;;
1122;SDS011;548;48.778;9.252;2023-05-16T15:54:57;12.20;;;11.70;;
1122;SDS011;548;48.778;9.252;2023-05-16T15:57:25;12.60;;;12.00;;
1122;SDS011;548;48.778;9.252;2023-05-16T15:59:52;12.00;;;11.40;;
1122;SDS011;548;48.778;9.252;2023-05-16T16:02:18;11.80;;;11.00;;
1122;SDS011;548;48.778;9.252;2023-05-16T16:04:45;11.10;;;10.60;;
1122;SDS011;548;48.778;9.252;2023-05-16T16:07:13;11.67;;;11.17;;
1122;SDS011;548;48.778;9.252;2023-05-16T16:09:39;11.07;;;10.67;;
1122;SDS011;548;48.778;9.252;2023-05-16T16:12:06;10.90;;;10.40;;
1122;SDS011;548;48.778;9.252;2023-05-16T16:14:35;11.50;;;11.00;;
1122;SDS011;548;48.778;9.252;2023-05-16T16:17:02;11.10;;;10.50;;
1122;SDS011;548;48.778;9.252;2023-05-16T16:19:28;12.23;;;11.73;;
1122;SDS011;548;48.778;9.252;2023-05-16T16:21:55;11.33;;;10.80;;
1122;SDS011;548;48.778;9.252;2023-05-16T16:24:22;13.70;;;12.90;;
1122;SDS011;548;48.778;9.252;2023-05-16T16:26:49;12.67;;;11.83;;
1122;SDS011;548;48.778;9.252;2023-05-16T16:29:15;12.30;;;11.77;;
1122;SDS011;548;48.778;9.252;2023-05-16T16:31:43;12.07;;;11.50;;
1122;SDS011;548;48.778;9.252;2023-05-16T16:34:10;12.70;;;11.93;;
1122;SDS011;548;48.778;9.252;2023-05-16T16:36:37;12.10;;;11.50;;
1122;SDS011;548;48.778;9.252;2023-05-16T16:39:03;10.67;;;10.27;;
1122;SDS011;548;48.778;9.252;2023-05-16T16:41:30;11.50;;;10.90;;
1122;SDS011;548;48.778;9.252;2023-05-16T16:43:57;12.40;;;11.60;;
1122;SDS011;548;48.778;9.252;2023-05-16T16:46:24;12.43;;;11.70;;
1122;SDS011;548;48.778;9.252;2023-05-16T16:48:52;11.30;;;10.80;;
1122;SDS011;548;48.778;9.252;2023-05-16T16:51:18;11.20;;;10.70;;
1122;SDS011;548;48.778;9.252;2023-05-16T16:53:45;12.27;;;11.13;;
1122;SDS011;548;48.778;9.252;2023-05-16T16:56:12;12.23;;;11.53;;
1122;SDS011;548;48.778;9.252;2023-05-16T16:58:39;11.37;;;10.60;;
1122;SDS011;548;48.778;9.252;2023-05-16T17:01:06;12.20;;;11.00;;
1122;SDS011;548;48.778;9.252;2023-05-16T17:03:33;11.37;;;10.37;;
1122;SDS011;548;48.778;9.252;2023-05-16T17:06:01;12.13;;;11.13;;
1122;SDS011;548;48.778;9.252;2023-05-16T17:08:28;12.00;;;11.27;;
1122;SDS011;548;48.778;9.252;2023-05-16T17:10:54;11.23;;;10.57;;
1122;SDS011;548;48.778;9.252;2023-05-16T17:13:23;11.40;;;10.47;;
1122;SDS011;548;48.778;9.252;2023-05-16T17:15:57;11.63;;;11.17;;
1122;SDS011;548;48.778;9.252;2023-05-16T17:18:24;12.60;;;11.80;;
1122;SDS011;548;48.778;9.252;2023-05-16T17:20:51;12.10;;;11.40;;
1122;SDS011;548;48.778;9.252;2023-05-16T17:23:19;11.00;;;10.50;;
1122;SDS011;548;48.778;9.252;2023-05-16T17:25:46;12.30;;;11.27;;
1122;SDS011;548;48.778;9.252;2023-05-16T17:28:13;11.33;;;10.63;;
1122;SDS011;548;48.778;9.252;2023-05-16T17:30:39;15.23;;;11.40;;
1122;SDS011;548;48.778;9.252;2023-05-16T17:33:06;12.33;;;11.33;;
1122;SDS011;548;48.778;9.252;2023-05-16T17:35:33;11.30;;;10.80;;
1122;SDS011;548;48.778;9.252;2023-05-16T17:38:00;12.60;;;11.50;;
1122;SDS011;548;48.778;9.252;2023-05-16T17:40:29;11.30;;;10.80;;
1122;SDS011;548;48.778;9.252;2023-05-16T17:42:56;11.10;;;10.60;;
1122;SDS011;548;48.778;9.252;2023-05-16T17:45:23;11.67;;;10.90;;
1122;SDS011;548;48.778;9.252;2023-05-16T17:47:50;12.27;;;11.57;;
1122;SDS011;548;48.778;9.252;2023-05-16T17:50:16;11.63;;;10.67;;
1122;SDS011;548;48.778;9.252;2023-05-16T17:52:43;10.23;;;9.73;;
1122;SDS011;548;48.778;9.252;2023-05-16T17:55:11;10.27;;;9.77;;
1122;SDS011;548;48.778;9.252;2023-05-16T17:57:39;10.30;;;9.90;;
1122;SDS011;548;48.778;9.252;2023-05-16T18:00:06;11.10;;;10.30;;
1122;SDS011;548;48.778;9.252;2023-05-16T18:02:33;10.90;;;10.30;;
1122;SDS011;548;48.778;9.252;2023-05-16T18:05:00;11.20;;;10.43;;
1122;SDS011;548;48.778;9.252;2023-05-16T18:07:27;11.03;;;10.33;;
1122;SDS011;548;48.778;9.252;2023-05-16T18:09:55;10.23;;;9.80;;
1122;SDS011;548;48.778;9.252;2023-05-16T18:12:21;11.50;;;10.90;;
1122;SDS011;548;48.778;9.252;2023-05-16T18:14:49;12.00;;;11.20;;
1122;SDS011;548;48.778;9.252;2023-05-16T18:17:17;12.10;;;11.40;;
1122;SDS011;548;48.778;9.252;2023-05-16T18:19:43;11.10;;;10.50;;
1122;SDS011;548;48.778;9.252;2023-05-16T18:22:10;10.70;;;9.93;;
1122;SDS011;548;48.778;9.252;2023-05-16T18:24:37;10.07;;;9.43;;
1122;SDS011;548;48.778;9.252;2023-05-16T18:27:04;10.73;;;9.83;;
1122;SDS011;548;48.778;9.252;2023-05-16T18:29:31;10.50;;;9.80;;
1122;SDS011;548;48.778;9.252;2023-05-16T18:31:59;16.20;;;10.20;;
1122;SDS011;548;48.778;9.252;2023-05-16T18:34:27;10.27;;;9.67;;
1122;SDS011;548;48.778;9.252;2023-05-16T18:36:53;10.90;;;10.10;;
1122;SDS011;548;48.778;9.252;2023-05-16T18:39:20;10.70;;;10.00;;
1122;SDS011;548;48.778;9.252;2023-05-16T18:41:52;11.20;;;10.60;;
1122;SDS011;548;48.778;9.252;2023-05-16T18:44:20;10.47;;;9.97;;
1122;SDS011;548;48.778;9.252;2023-05-16T18:46:46;11.57;;;10.77;;
1122;SDS011;548;48.778;9.252;2023-05-16T18:49:14;11.30;;;10.60;;
1122;SDS011;548;48.778;9.252;2023-05-16T18:51:41;11.40;;;10.60;;
1122;SDS011;548;48.778;9.252;2023-05-16T18:54:09;9.97;;;9.37;;
1122;SDS011;548;48.778;9.252;2023-05-16T18:56:35;10.60;;;10.20;;
1122;SDS011;548;48.778;9.252;2023-05-16T18:59:02;9.97;;;9.37;;
1122;SDS011;548;48.778;9.252;2023-05-16T19:01:30;10.00;;;9.43;;
1122;SDS011;548;48.778;9.252;2023-05-16T19:03:57;9.93;;;9.47;;
1122;SDS011;548;48.778;9.252;2023-05-16T19:06:25;9.97;;;9.17;;
1122;SDS011;548;48.778;9.252;2023-05-16T19:08:52;9.37;;;8.60;;
1122;SDS011;548;48.778;9.252;2023-05-16T19:11:19;11.10;;;10.10;;
1122;SDS011;548;48.778;9.252;2023-05-16T19:13:46;9.90;;;9.40;;
1122;SDS011;548;48.778;9.252;2023-05-16T19:16:13;9.57;;;8.97;;
1122;SDS011;548;48.778;9.252;2023-05-16T19:18:40;10.73;;;9.90;;
1122;SDS011;548;48.778;9.252;2023-05-16T19:21:06;9.77;;;9.20;;
1122;SDS011;548;48.778;9.252;2023-05-16T19:23:36;10.33;;;9.20;;
1122;SDS011;548;48.778;9.252;2023-05-16T19:26:02;9.73;;;9.13;;
1122;SDS011;548;48.778;9.252;2023-05-16T19:28:30;9.93;;;9.30;;
1122;SDS011;548;48.778;9.252;2023-05-16T19:30:57;9.70;;;9.10;;
1122;SDS011;548;48.778;9.252;2023-05-16T19:33:30;10.47;;;9.97;;
1122;SDS011;548;48.778;9.252;2023-05-16T19:35:57;9.63;;;8.77;;
1122;SDS011;548;48.778;9.252;2023-05-16T19:38:24;9.73;;;8.93;;
1122;SDS011;548;48.778;9.252;2023-05-16T19:40:52;9.00;;;8.50;;
1122;SDS011;548;48.778;9.252;2023-05-16T19:43:19;10.43;;;9.27;;
1122;SDS011;548;48.778;9.252;2023-05-16T19:45:46;9.33;;;8.73;;
1122;SDS011;548;48.778;9.252;2023-05-16T19:48:13;10.10;;;9.17;;
1122;SDS011;548;48.778;9.252;2023-05-16T19:50:40;9.40;;;8.80;;
1122;SDS011;548;48.778;9.252;2023-05-16T19:53:06;9.40;;;8.83;;
1122;SDS011;548;48.778;9.252;2023-05-16T19:55:34;9.20;;;8.70;;
1122;SDS011;548;48.778;9.252;2023-05-16T19:58:03;9.13;;;8.50;;